sensor_id;sensor_type;location;lat;lon;timestamp;pressure;altitude;pressure_sealevel;temperature;humidity
29907;BME280;16776;50.958;10.994;2022-12-11T00:02:08;97873.63;;;-0.91;100.00
29907;BME280;16776;50.958;10.994;2022-12-11T00:04:35;97864.34;;;-0.92;100.00
29907;BME280;16776;50.958;10.994;2022-12-11T00:07:02;97869.44;;;-0.91;100.00
29907;BME280;16776;50.958;10.994;2022-12-11T00:09:29;97865.19;;;-0.93;100.00
29907;BME280;16776;50.958;10.994;2022-12-11T00:11:56;97859.28;;;-0.97;100.00
29907;BME280;16776;50.958;10.994;2022-12-11T00:14:22;97861.78;;;-1.00;100.00
29907;BME280;16776;50.958;10.994;2022-12-11T00:16:54;97860.91;;;-1.02;100.00
29907;BME280;16776;50.958;10.994;2022-12-11T00:19:21;97857.53;;;-1.06;100.00
29907;BME280;16776;50.958;10.994;2022-12-11T00:21:53;97817.75;;;-1.32;100.00
29907;BME280;16776;50.958;10.994;2022-12-11T00:24:21;97847.38;;;-1.12;100.00
29907;BME280;16776;50.958;10.994;2022-12-11T00:26:48;97851.53;;;-1.18;100.00
29907;BME280;16776;50.958;10.994;2022-12-11T00:29:14;97846.47;;;-1.23;100.00
29907;BME280;16776;50.958;10.994;2022-12-11T00:31:41;97847.25;;;-1.27;100.00
29907;BME280;16776;50.958;10.994;2022-12-11T00:34:08;97845.56;;;-1.31;100.00
29907;BME280;16776;50.958;10.994;2022-12-11T00:36:36;97842.13;;;-1.39;100.00
29907;BME280;16776;50.958;10.994;2022-12-11T00:39:03;97841.28;;;-1.38;100.00
29907;BME280;16776;50.958;10.994;2022-12-11T00:41:32;97851.50;;;-1.21;100.00
29907;BME280;16776;50.958;10.994;2022-12-11T00:43:58;97848.28;;;-1.04;100.00
29907;BME280;16776;50.958;10.994;2022-12-11T00:46:25;97845.00;;;-0.89;100.00
29907;BME280;16776;50.958;10.994;2022-12-11T00:48:54;97846.69;;;-0.83;100.00
29907;BME280;16776;50.958;10.994;2022-12-11T00:51:21;97854.34;;;-0.79;100.00
29907;BME280;16776;50.958;10.994;2022-12-11T00:53:47;97852.66;;;-0.80;100.00
29907;BME280;16776;50.958;10.994;2022-12-11T00:56:17;97852.66;;;-0.80;100.00
29907;BME280;16776;50.958;10.994;2022-12-11T00:58:46;97861.03;;;-0.82;100.00
29907;BME280;16776;50.958;10.994;2022-12-11T01:01:15;97862.69;;;-0.89;100.00
29907;BME280;16776;50.958;10.994;2022-12-11T01:03:43;97849.13;;;-1.00;100.00
29907;BME280;16776;50.958;10.994;2022-12-11T01:06:13;97872.75;;;-0.95;100.00
29907;BME280;16776;50.958;10.994;2022-12-11T01:08:40;97874.38;;;-1.03;100.00
29907;BME280;16776;50.958;10.994;2022-12-11T01:11:09;97880.22;;;-1.09;100.00
29907;BME280;16776;50.958;10.994;2022-12-11T01:13:35;97877.69;;;-1.16;100.00
29907;BME280;16776;50.958;10.994;2022-12-11T01:16:08;97879.34;;;-1.18;100.00
29907;BME280;16776;50.958;10.994;2022-12-11T01:18:35;97887.69;;;-1.25;100.00
29907;BME280;16776;50.958;10.994;2022-12-11T01:21:06;97880.94;;;-1.26;100.00
29907;BME280;16776;50.958;10.994;2022-12-11T01:23:33;97877.47;;;-1.39;100.00
29907;BME280;16776;50.958;10.994;2022-12-11T01:26:04;97883.38;;;-1.37;100.00
29907;BME280;16776;50.958;10.994;2022-12-11T01:28:31;97892.66;;;-1.36;100.00
29907;BME280;16776;50.958;10.994;2022-12-11T01:30:57;97896.88;;;-1.37;100.00
29907;BME280;16776;50.958;10.994;2022-12-11T01:33:26;97892.66;;;-1.34;100.00
29907;BME280;16776;50.958;10.994;2022-12-11T01:35:53;97849.47;;;-1.63;100.00
29907;BME280;16776;50.958;10.994;2022-12-11T01:38:19;97895.16;;;-1.38;100.00
29907;BME280;16776;50.958;10.994;2022-12-11T01:40:46;97891.78;;;-1.38;100.00
29907;BME280;16776;50.958;10.994;2022-12-11T01:43:13;97898.53;;;-1.39;100.00
29907;BME280;16776;50.958;10.994;2022-12-11T01:45:40;97891.78;;;-1.40;100.00
29907;BME280;16776;50.958;10.994;2022-12-11T01:48:10;97887.56;;;-1.39;100.00
29907;BME280;16776;50.958;10.994;2022-12-11T01:50:43;97886.75;;;-1.38;100.00
29907;BME280;16776;50.958;10.994;2022-12-11T01:53:16;97898.53;;;-1.39;100.00
29907;BME280;16776;50.958;10.994;2022-12-11T01:55:44;97896.81;;;-1.43;100.00
29907;BME280;16776;50.958;10.994;2022-12-11T01:58:12;97891.75;;;-1.44;100.00
29907;BME280;16776;50.958;10.994;2022-12-11T02:00:39;97890.03;;;-1.45;100.00
29907;BME280;16776;50.958;10.994;2022-12-11T02:03:06;97893.41;;;-1.46;100.00
29907;BME280;16776;50.958;10.994;2022-12-11T02:05:33;97893.41;;;-1.46;100.00
29907;BME280;16776;50.958;10.994;2022-12-11T02:08:01;97894.25;;;-1.46;100.00
29907;BME280;16776;50.958;10.994;2022-12-11T02:10:42;97890.91;;;-1.43;100.00
29907;BME280;16776;50.958;10.994;2022-12-11T02:13:13;97887.50;;;-1.47;100.00
29907;BME280;16776;50.958;10.994;2022-12-11T02:15:48;97884.97;;;-1.47;100.00
29907;BME280;16776;50.958;10.994;2022-12-11T02:18:21;97886.66;;;-1.47;100.00
29907;BME280;16776;50.958;10.994;2022-12-11T02:20:54;97885.81;;;-1.48;100.00
29907;BME280;16776;50.958;10.994;2022-12-11T02:23:51;97879.94;;;-1.45;100.00
29907;BME280;16776;50.958;10.994;2022-12-11T02:26:38;97876.53;;;-1.47;100.00
29907;BME280;16776;50.958;10.994;2022-12-11T02:29:17;97874.00;;;-1.50;100.00
29907;BME280;16776;50.958;10.994;2022-12-11T02:31:49;97884.97;;;-1.50;100.00
29907;BME280;16776;50.958;10.994;2022-12-11T02:34:22;97881.59;;;-1.50;100.00
29907;BME280;16776;50.958;10.994;2022-12-11T02:36:57;97872.28;;;-1.56;100.00
29907;BME280;16776;50.958;10.994;2022-12-11T02:39:25;97880.72;;;-1.52;100.00
29907;BME280;16776;50.958;10.994;2022-12-11T02:41:53;97840.06;;;-1.81;100.00
29907;BME280;16776;50.958;10.994;2022-12-11T02:44:24;97884.09;;;-1.52;100.00
29907;BME280;16776;50.958;10.994;2022-12-11T02:46:52;97884.06;;;-1.53;100.00
29907;BME280;16776;50.958;10.994;2022-12-11T02:49:23;97888.31;;;-1.51;100.00
29907;BME280;16776;50.958;10.994;2022-12-11T02:51:51;97882.38;;;-1.54;100.00
29907;BME280;16776;50.958;10.994;2022-12-11T02:54:25;97885.75;;;-1.52;100.00
29907;BME280;16776;50.958;10.994;2022-12-11T02:56:58;97883.22;;;-1.54;100.00
29907;BME280;16776;50.958;10.994;2022-12-11T02:59:31;97879.03;;;-1.55;100.00
29907;BME280;16776;50.958;10.994;2022-12-11T03:02:00;97876.47;;;-1.58;100.00
29907;BME280;16776;50.958;10.994;2022-12-11T03:04:27;97882.34;;;-1.59;100.00
29907;BME280;16776;50.958;10.994;2022-12-11T03:06:55;97872.25;;;-1.59;100.00
29907;BME280;16776;50.958;10.994;2022-12-11T03:09:24;97873.91;;;-1.59;100.00
29907;BME280;16776;50.958;10.994;2022-12-11T03:11:52;97879.78;;;-1.60;100.00
29907;BME280;16776;50.958;10.994;2022-12-11T03:14:19;97878.13;;;-1.60;100.00
29907;BME280;16776;50.958;10.994;2022-12-11T03:16:52;97864.63;;;-1.63;100.00
29907;BME280;16776;50.958;10.994;2022-12-11T03:19:27;97871.41;;;-1.58;100.00
29907;BME280;16776;50.958;10.994;2022-12-11T03:22:01;97874.75;;;-1.59;100.00
29907;BME280;16776;50.958;10.994;2022-12-11T03:24:33;97880.66;;;-1.58;100.00
29907;BME280;16776;50.958;10.994;2022-12-11T03:27:07;97887.41;;;-1.57;100.00
29907;BME280;16776;50.958;10.994;2022-12-11T03:29:37;97882.34;;;-1.59;100.00
29907;BME280;16776;50.958;10.994;2022-12-11T03:32:18;97881.53;;;-1.56;100.00
29907;BME280;16776;50.958;10.994;2022-12-11T03:34:53;97851.88;;;-1.77;100.00
29907;BME280;16776;50.958;10.994;2022-12-11T03:37:23;97885.69;;;-1.60;100.00
29907;BME280;16776;50.958;10.994;2022-12-11T03:39:57;97887.41;;;-1.57;100.00
29907;BME280;16776;50.958;10.994;2022-12-11T03:42:25;97888.22;;;-1.58;100.00
29907;BME280;16776;50.958;10.994;2022-12-11T03:44:53;97883.22;;;-1.57;100.00
29907;BME280;16776;50.958;10.994;2022-12-11T03:47:26;97881.50;;;-1.58;100.00
29907;BME280;16776;50.958;10.994;2022-12-11T03:49:55;97875.59;;;-1.60;100.00
29907;BME280;16776;50.958;10.994;2022-12-11T03:52:24;97868.78;;;-1.67;100.00
29907;BME280;16776;50.958;10.994;2022-12-11T03:54:53;97877.25;;;-1.60;100.00
29907;BME280;16776;50.958;10.994;2022-12-11T03:57:25;97877.28;;;-1.62;100.00
29907;BME280;16776;50.958;10.994;2022-12-11T03:59:54;97877.28;;;-1.62;100.00
29907;BME280;16776;50.958;10.994;2022-12-11T04:02:21;97887.38;;;-1.62;100.00
29907;BME280;16776;50.958;10.994;2022-12-11T04:04:51;97880.63;;;-1.60;100.00
29907;BME280;16776;50.958;10.994;2022-12-11T04:07:20;97886.53;;;-1.61;100.00
29907;BME280;16776;50.958;10.994;2022-12-11T04:09:47;97879.78;;;-1.60;100.00
29907;BME280;16776;50.958;10.994;2022-12-11T04:12:13;97878.97;;;-1.61;100.00
29907;BME280;16776;50.958;10.994;2022-12-11T04:14:40;97882.34;;;-1.59;100.00
29907;BME280;16776;50.958;10.994;2022-12-11T04:17:24;97883.19;;;-1.58;100.00
29907;BME280;16776;50.958;10.994;2022-12-11T04:20:10;97881.56;;;-1.55;100.00
29907;BME280;16776;50.958;10.994;2022-12-11T04:22:54;97874.81;;;-1.56;100.00
29907;BME280;16776;50.958;10.994;2022-12-11T04:25:38;97875.66;;;-1.54;100.00
29907;BME280;16776;50.958;10.994;2022-12-11T04:28:04;97871.44;;;-1.53;100.00
29907;BME280;16776;50.958;10.994;2022-12-11T04:30:33;97870.63;;;-1.51;100.00
29907;BME280;16776;50.958;10.994;2022-12-11T04:32:59;97867.28;;;-1.50;100.00
29907;BME280;16776;50.958;10.994;2022-12-11T04:35:28;97851.25;;;-1.52;100.00
29907;BME280;16776;50.958;10.994;2022-12-11T04:37:54;97862.25;;;-1.48;100.00
29907;BME280;16776;50.958;10.994;2022-12-11T04:40:24;97859.72;;;-1.48;100.00
29907;BME280;16776;50.958;10.994;2022-12-11T04:42:50;97863.94;;;-1.49;100.00
29907;BME280;16776;50.958;10.994;2022-12-11T04:45:17;97861.41;;;-1.49;100.00
29907;BME280;16776;50.958;10.994;2022-12-11T04:47:46;97860.56;;;-1.48;100.00
29907;BME280;16776;50.958;10.994;2022-12-11T04:50:17;97853.84;;;-1.49;100.00
29907;BME280;16776;50.958;10.994;2022-12-11T04:52:45;97857.22;;;-1.48;100.00
29907;BME280;16776;50.958;10.994;2022-12-11T04:55:14;97858.03;;;-1.48;100.00
29907;BME280;16776;50.958;10.994;2022-12-11T04:57:40;97855.50;;;-1.49;100.00
29907;BME280;16776;50.958;10.994;2022-12-11T05:00:11;97861.41;;;-1.46;100.00
29907;BME280;16776;50.958;10.994;2022-12-11T05:02:40;97857.19;;;-1.50;100.00
29907;BME280;16776;50.958;10.994;2022-12-11T05:05:11;97867.28;;;-1.50;100.00
29907;BME280;16776;50.958;10.994;2022-12-11T05:07:38;97837.72;;;-1.63;100.00
29907;BME280;16776;50.958;10.994;2022-12-11T05:10:10;97861.41;;;-1.49;100.00
29907;BME280;16776;50.958;10.994;2022-12-11T05:12:37;97856.28;;;-1.53;100.00
29907;BME280;16776;50.958;10.994;2022-12-11T05:15:04;97856.28;;;-1.53;100.00
29907;BME280;16776;50.958;10.994;2022-12-11T05:17:32;97857.13;;;-1.53;100.00
29907;BME280;16776;50.958;10.994;2022-12-11T05:19:59;97855.44;;;-1.54;100.00
29907;BME280;16776;50.958;10.994;2022-12-11T05:22:28;97857.13;;;-1.54;100.00
29907;BME280;16776;50.958;10.994;2022-12-11T05:24:55;97856.31;;;-1.55;100.00
29907;BME280;16776;50.958;10.994;2022-12-11T05:27:23;97858.81;;;-1.53;100.00
29907;BME280;16776;50.958;10.994;2022-12-11T05:29:51;97863.88;;;-1.52;100.00
29907;BME280;16776;50.958;10.994;2022-12-11T05:32:18;97853.78;;;-1.53;100.00
29907;BME280;16776;50.958;10.994;2022-12-11T05:34:45;97851.25;;;-1.53;100.00
29907;BME280;16776;50.958;10.994;2022-12-11T05:37:11;97857.13;;;-1.53;100.00
29907;BME280;16776;50.958;10.994;2022-12-11T05:39:38;97857.13;;;-1.53;100.00
29907;BME280;16776;50.958;10.994;2022-12-11T05:42:04;97847.03;;;-1.53;100.00
29907;BME280;16776;50.958;10.994;2022-12-11T05:44:35;97842.03;;;-1.50;100.00
29907;BME280;16776;50.958;10.994;2022-12-11T05:47:02;97846.19;;;-1.53;100.00
29907;BME280;16776;50.958;10.994;2022-12-11T05:49:29;97847.88;;;-1.54;100.00
29907;BME280;16776;50.958;10.994;2022-12-11T05:51:55;97852.09;;;-1.56;100.00
29907;BME280;16776;50.958;10.994;2022-12-11T05:54:22;97857.97;;;-1.55;100.00
29907;BME280;16776;50.958;10.994;2022-12-11T05:56:49;97808.06;;;-1.87;100.00
29907;BME280;16776;50.958;10.994;2022-12-11T05:59:16;97857.97;;;-1.55;100.00
29907;BME280;16776;50.958;10.994;2022-12-11T06:01:45;97857.13;;;-1.53;100.00
29907;BME280;16776;50.958;10.994;2022-12-11T06:04:12;97854.59;;;-1.54;100.00
29907;BME280;16776;50.958;10.994;2022-12-11T06:06:39;97861.34;;;-1.53;100.00
29907;BME280;16776;50.958;10.994;2022-12-11T06:09:06;97836.88;;;-1.60;100.00
29907;BME280;16776;50.958;10.994;2022-12-11T06:11:35;97856.31;;;-1.52;100.00
29907;BME280;16776;50.958;10.994;2022-12-11T06:14:03;97858.00;;;-1.51;100.00
29907;BME280;16776;50.958;10.994;2022-12-11T06:16:30;97852.97;;;-1.51;100.00
29907;BME280;16776;50.958;10.994;2022-12-11T06:18:58;97845.38;;;-1.51;100.00
29907;BME280;16776;50.958;10.994;2022-12-11T06:21:26;97852.97;;;-1.51;100.00
29907;BME280;16776;50.958;10.994;2022-12-11T06:23:58;97838.56;;;-1.62;100.00
29907;BME280;16776;50.958;10.994;2022-12-11T06:26:29;97849.59;;;-1.51;100.00
29907;BME280;16776;50.958;10.994;2022-12-11T06:28:56;97854.63;;;-1.53;100.00
29907;BME280;16776;50.958;10.994;2022-12-11T06:31:23;97848.72;;;-1.53;100.00
29907;BME280;16776;50.958;10.994;2022-12-11T06:33:52;97841.16;;;-1.53;100.00
29907;BME280;16776;50.958;10.994;2022-12-11T06:36:22;97832.75;;;-1.52;100.00
29907;BME280;16776;50.958;10.994;2022-12-11T06:38:49;97832.72;;;-1.55;100.00
29907;BME280;16776;50.958;10.994;2022-12-11T06:41:16;97831.00;;;-1.58;100.00
29907;BME280;16776;50.958;10.994;2022-12-11T06:43:43;97840.28;;;-1.57;100.00
29907;BME280;16776;50.958;10.994;2022-12-11T06:46:15;97843.63;;;-1.58;100.00
29907;BME280;16776;50.958;10.994;2022-12-11T06:48:42;97829.31;;;-1.59;100.00
29907;BME280;16776;50.958;10.994;2022-12-11T06:51:11;97832.69;;;-1.58;100.00
29907;BME280;16776;50.958;10.994;2022-12-11T06:53:40;97836.06;;;-1.58;100.00
29907;BME280;16776;50.958;10.994;2022-12-11T06:56:08;97838.56;;;-1.59;100.00
29907;BME280;16776;50.958;10.994;2022-12-11T06:58:37;97844.47;;;-1.59;100.00
29907;BME280;16776;50.958;10.994;2022-12-11T07:01:13;97846.19;;;-1.56;100.00
29907;BME280;16776;50.958;10.994;2022-12-11T07:03:40;97840.25;;;-1.60;100.00
29907;BME280;16776;50.958;10.994;2022-12-11T07:06:06;97841.09;;;-1.61;100.00
29907;BME280;16776;50.958;10.994;2022-12-11T07:08:33;97840.25;;;-1.60;100.00
29907;BME280;16776;50.958;10.994;2022-12-11T07:11:06;97845.34;;;-1.57;100.00
29907;BME280;16776;50.958;10.994;2022-12-11T07:13:32;97845.28;;;-1.60;100.00
29907;BME280;16776;50.958;10.994;2022-12-11T07:15:59;97842.78;;;-1.61;100.00
29907;BME280;16776;50.958;10.994;2022-12-11T07:18:29;97841.94;;;-1.62;100.00
29907;BME280;16776;50.958;10.994;2022-12-11T07:20:56;97842.78;;;-1.60;100.00
29907;BME280;16776;50.958;10.994;2022-12-11T07:23:23;97845.31;;;-1.61;100.00
29907;BME280;16776;50.958;10.994;2022-12-11T07:25:49;97836.88;;;-1.62;100.00
29907;BME280;16776;50.958;10.994;2022-12-11T07:28:18;97841.91;;;-1.60;100.00
29907;BME280;16776;50.958;10.994;2022-12-11T07:30:47;97849.50;;;-1.60;100.00
29907;BME280;16776;50.958;10.994;2022-12-11T07:33:13;97848.69;;;-1.61;100.00
29907;BME280;16776;50.958;10.994;2022-12-11T07:35:40;97843.53;;;-1.67;100.00
29907;BME280;16776;50.958;10.994;2022-12-11T07:38:07;97852.03;;;-1.62;100.00
29907;BME280;16776;50.958;10.994;2022-12-11T07:40:35;97848.66;;;-1.62;100.00
29907;BME280;16776;50.958;10.994;2022-12-11T07:43:02;97791.16;;;-1.95;100.00
29907;BME280;16776;50.958;10.994;2022-12-11T07:45:30;97848.69;;;-1.61;100.00
29907;BME280;16776;50.958;10.994;2022-12-11T07:47:57;97849.50;;;-1.62;100.00
29907;BME280;16776;50.958;10.994;2022-12-11T07:50:23;97852.00;;;-1.63;100.00
29907;BME280;16776;50.958;10.994;2022-12-11T07:52:50;97846.94;;;-1.65;100.00
29907;BME280;16776;50.958;10.994;2022-12-11T07:55:17;97848.63;;;-1.64;100.00
29907;BME280;16776;50.958;10.994;2022-12-11T07:57:43;97848.63;;;-1.64;100.00
29907;BME280;16776;50.958;10.994;2022-12-11T08:00:10;97850.28;;;-1.66;100.00
29907;BME280;16776;50.958;10.994;2022-12-11T08:02:39;97846.97;;;-1.62;100.00
29907;BME280;16776;50.958;10.994;2022-12-11T08:05:07;97857.88;;;-1.64;100.00
29907;BME280;16776;50.958;10.994;2022-12-11T08:07:33;97853.69;;;-1.64;100.00
29907;BME280;16776;50.958;10.994;2022-12-11T08:10:00;97856.22;;;-1.64;100.00
29907;BME280;16776;50.958;10.994;2022-12-11T08:12:27;97856.22;;;-1.64;100.00
29907;BME280;16776;50.958;10.994;2022-12-11T08:14:53;97857.91;;;-1.63;100.00
29907;BME280;16776;50.958;10.994;2022-12-11T08:17:20;97857.91;;;-1.63;100.00
29907;BME280;16776;50.958;10.994;2022-12-11T08:19:48;97863.81;;;-1.61;100.00
29907;BME280;16776;50.958;10.994;2022-12-11T08:22:14;97857.91;;;-1.63;100.00
29907;BME280;16776;50.958;10.994;2022-12-11T08:24:41;97852.03;;;-1.62;100.00
29907;BME280;16776;50.958;10.994;2022-12-11T08:27:12;97853.69;;;-1.64;100.00
29907;BME280;16776;50.958;10.994;2022-12-11T08:29:39;97855.38;;;-1.63;100.00
29907;BME280;16776;50.958;10.994;2022-12-11T08:32:06;97855.38;;;-1.63;100.00
29907;BME280;16776;50.958;10.994;2022-12-11T08:34:32;97864.66;;;-1.62;100.00
29907;BME280;16776;50.958;10.994;2022-12-11T08:37:00;97861.31;;;-1.61;100.00
29907;BME280;16776;50.958;10.994;2022-12-11T08:39:27;97862.13;;;-1.62;100.00
29907;BME280;16776;50.958;10.994;2022-12-11T08:41:54;97864.63;;;-1.60;100.00
29907;BME280;16776;50.958;10.994;2022-12-11T08:44:21;97869.69;;;-1.60;100.00
29907;BME280;16776;50.958;10.994;2022-12-11T08:46:51;97870.59;;;-1.55;100.00
29907;BME280;16776;50.958;10.994;2022-12-11T08:49:18;97873.34;;;-1.31;100.00
29907;BME280;16776;50.958;10.994;2022-12-11T08:51:45;97871.09;;;-0.93;100.00
29907;BME280;16776;50.958;10.994;2022-12-11T08:54:13;97866.25;;;-0.57;100.00
29907;BME280;16776;50.958;10.994;2022-12-11T08:56:42;97866.34;;;-0.32;100.00
29907;BME280;16776;50.958;10.994;2022-12-11T08:59:09;97870.66;;;-0.14;100.00
29907;BME280;16776;50.958;10.994;2022-12-11T09:01:35;97868.19;;;-0.02;100.00
29907;BME280;16776;50.958;10.994;2022-12-11T09:04:02;97865.66;;;0.04;100.00
29907;BME280;16776;50.958;10.994;2022-12-11T09:06:31;97860.59;;;0.08;100.00
29907;BME280;16776;50.958;10.994;2022-12-11T09:08:59;97860.59;;;0.08;100.00
29907;BME280;16776;50.958;10.994;2022-12-11T09:11:30;97861.44;;;0.07;100.00
29907;BME280;16776;50.958;10.994;2022-12-11T09:13:57;97858.06;;;0.02;100.00
29907;BME280;16776;50.958;10.994;2022-12-11T09:16:25;97862.25;;;0.00;100.00
29907;BME280;16776;50.958;10.994;2022-12-11T09:18:53;97811.53;;;-0.36;100.00
29907;BME280;16776;50.958;10.994;2022-12-11T09:21:22;97863.94;;;-0.09;100.00
29907;BME280;16776;50.958;10.994;2022-12-11T09:23:51;97861.41;;;-0.14;100.00
29907;BME280;16776;50.958;10.994;2022-12-11T09:26:18;97857.13;;;-0.23;100.00
29907;BME280;16776;50.958;10.994;2022-12-11T09:28:46;97860.47;;;-0.25;100.00
29907;BME280;16776;50.958;10.994;2022-12-11T09:31:17;97856.25;;;-0.29;100.00
29907;BME280;16776;50.958;10.994;2022-12-11T09:33:44;97857.06;;;-0.36;100.00
29907;BME280;16776;50.958;10.994;2022-12-11T09:36:11;97852.84;;;-0.40;100.00
29907;BME280;16776;50.958;10.994;2022-12-11T09:38:38;97857.88;;;-0.45;100.00
29907;BME280;16776;50.958;10.994;2022-12-11T09:41:28;97854.53;;;-0.42;100.00
29907;BME280;16776;50.958;10.994;2022-12-11T09:44:11;97852.78;;;-0.49;100.00
29907;BME280;16776;50.958;10.994;2022-12-11T09:46:41;97854.47;;;-0.53;100.00
29907;BME280;16776;50.958;10.994;2022-12-11T09:49:20;97857.81;;;-0.59;100.00
29907;BME280;16776;50.958;10.994;2022-12-11T09:51:52;97856.09;;;-0.63;100.00
29907;BME280;16776;50.958;10.994;2022-12-11T09:54:23;97854.38;;;-0.68;100.00
29907;BME280;16776;50.958;10.994;2022-12-11T09:56:56;97853.56;;;-0.66;100.00
29907;BME280;16776;50.958;10.994;2022-12-11T09:59:31;97857.75;;;-0.69;100.00
29907;BME280;16776;50.958;10.994;2022-12-11T10:02:13;97847.63;;;-0.74;100.00
29907;BME280;16776;50.958;10.994;2022-12-11T10:04:47;97850.13;;;-0.75;100.00
29907;BME280;16776;50.958;10.994;2022-12-11T10:07:18;97850.09;;;-0.84;100.00
29907;BME280;16776;50.958;10.994;2022-12-11T10:09:50;97846.72;;;-0.85;100.00
29907;BME280;16776;50.958;10.994;2022-12-11T10:12:30;97847.56;;;-0.83;100.00
29907;BME280;16776;50.958;10.994;2022-12-11T10:15:15;97835.75;;;-0.84;100.00
29907;BME280;16776;50.958;10.994;2022-12-11T10:17:45;97842.47;;;-0.92;100.00
29907;BME280;16776;50.958;10.994;2022-12-11T10:20:19;97843.31;;;-0.88;100.00
29907;BME280;16776;50.958;10.994;2022-12-11T10:22:49;97837.41;;;-0.92;100.00
29907;BME280;16776;50.958;10.994;2022-12-11T10:25:20;97839.94;;;-0.92;100.00
29907;BME280;16776;50.958;10.994;2022-12-11T10:27:47;97839.91;;;-0.95;100.00
29907;BME280;16776;50.958;10.994;2022-12-11T10:30:17;97833.16;;;-0.94;100.00
29907;BME280;16776;50.958;10.994;2022-12-11T10:32:51;97833.16;;;-0.94;100.00
29907;BME280;16776;50.958;10.994;2022-12-11T10:35:32;97831.50;;;-0.94;100.00
29907;BME280;16776;50.958;10.994;2022-12-11T10:38:11;97825.59;;;-0.94;100.00
29907;BME280;16776;50.958;10.994;2022-12-11T10:40:42;97810.38;;;-1.04;100.00
29907;BME280;16776;50.958;10.994;2022-12-11T10:43:08;97818.81;;;-1.00;100.00
29907;BME280;16776;50.958;10.994;2022-12-11T10:45:38;97816.31;;;-0.99;100.00
29907;BME280;16776;50.958;10.994;2022-12-11T10:48:08;97818.81;;;-1.00;100.00
29907;BME280;16776;50.958;10.994;2022-12-11T10:50:39;97817.97;;;-1.01;100.00
29907;BME280;16776;50.958;10.994;2022-12-11T10:53:19;97804.44;;;-1.07;100.00
29907;BME280;16776;50.958;10.994;2022-12-11T10:55:46;97812.91;;;-1.04;100.00
29907;BME280;16776;50.958;10.994;2022-12-11T10:58:16;97818.78;;;-1.03;100.00
29907;BME280;16776;50.958;10.994;2022-12-11T11:00:45;97812.91;;;-1.05;100.00
29907;BME280;16776;50.958;10.994;2022-12-11T11:03:24;97819.63;;;-1.07;100.00
29907;BME280;16776;50.958;10.994;2022-12-11T11:06:01;97808.69;;;-1.06;100.00
29907;BME280;16776;50.958;10.994;2022-12-11T11:08:39;97812.03;;;-1.07;100.00
29907;BME280;16776;50.958;10.994;2022-12-11T11:11:19;97801.91;;;-1.10;100.00
29907;BME280;16776;50.958;10.994;2022-12-11T11:13:46;97804.41;;;-1.16;100.00
29907;BME280;16776;50.958;10.994;2022-12-11T11:16:21;97791.75;;;-1.19;100.00
29907;BME280;16776;50.958;10.994;2022-12-11T11:18:51;97803.56;;;-1.17;100.00
29907;BME280;16776;50.958;10.994;2022-12-11T11:21:20;97799.34;;;-1.18;100.00
29907;BME280;16776;50.958;10.994;2022-12-11T11:23:48;97801.00;;;-1.20;100.00
29907;BME280;16776;50.958;10.994;2022-12-11T11:26:15;97776.47;;;-1.34;100.00
29907;BME280;16776;50.958;10.994;2022-12-11T11:28:47;97795.97;;;-1.17;100.00
29907;BME280;16776;50.958;10.994;2022-12-11T11:31:16;97772.28;;;-1.32;100.00
29907;BME280;16776;50.958;10.994;2022-12-11T11:33:46;97785.88;;;-1.18;100.00
29907;BME280;16776;50.958;10.994;2022-12-11T11:36:19;97779.09;;;-1.24;100.00
29907;BME280;16776;50.958;10.994;2022-12-11T11:38:49;97796.84;;;-1.16;100.00
29907;BME280;16776;50.958;10.994;2022-12-11T11:41:28;97791.78;;;-1.16;100.00
29907;BME280;16776;50.958;10.994;2022-12-11T11:43:58;97785.03;;;-1.17;100.00
29907;BME280;16776;50.958;10.994;2022-12-11T11:46:32;97776.63;;;-1.13;100.00
29907;BME280;16776;50.958;10.994;2022-12-11T11:49:06;97773.25;;;-1.12;100.00
29907;BME280;16776;50.958;10.994;2022-12-11T11:51:39;97782.50;;;-1.14;100.00
29907;BME280;16776;50.958;10.994;2022-12-11T11:54:14;97769.00;;;-1.21;100.00
29907;BME280;16776;50.958;10.994;2022-12-11T11:56:44;97783.34;;;-1.17;100.00
29907;BME280;16776;50.958;10.994;2022-12-11T11:59:17;97774.94;;;-1.14;99.99
29907;BME280;16776;50.958;10.994;2022-12-11T12:01:49;97778.28;;;-1.15;100.00
29907;BME280;16776;50.958;10.994;2022-12-11T12:04:16;97777.44;;;-1.17;100.00
29907;BME280;16776;50.958;10.994;2022-12-11T12:06:58;97766.56;;;-1.10;99.97
29907;BME280;16776;50.958;10.994;2022-12-11T12:09:39;97776.63;;;-1.13;100.00
29907;BME280;16776;50.958;10.994;2022-12-11T12:12:15;97770.72;;;-1.14;100.00
29907;BME280;16776;50.958;10.994;2022-12-11T12:14:55;97773.25;;;-1.14;99.60
29907;BME280;16776;50.958;10.994;2022-12-11T12:17:30;97774.09;;;-1.16;99.96
29907;BME280;16776;50.958;10.994;2022-12-11T12:20:09;97776.59;;;-1.18;99.66
29907;BME280;16776;50.958;10.994;2022-12-11T12:22:58;97780.81;;;-1.17;100.00
29907;BME280;16776;50.958;10.994;2022-12-11T12:25:33;97776.59;;;-1.19;99.91
29907;BME280;16776;50.958;10.994;2022-12-11T12:28:20;97782.47;;;-1.20;99.92
29907;BME280;16776;50.958;10.994;2022-12-11T12:31:02;97782.47;;;-1.20;100.00
29907;BME280;16776;50.958;10.994;2022-12-11T12:33:49;97778.25;;;-1.21;99.45
29907;BME280;16776;50.958;10.994;2022-12-11T12:36:23;97790.84;;;-1.26;100.00
29907;BME280;16776;50.958;10.994;2022-12-11T12:39:00;97777.38;;;-1.26;99.97
29907;BME280;16776;50.958;10.994;2022-12-11T12:41:36;97780.75;;;-1.27;99.84
29907;BME280;16776;50.958;10.994;2022-12-11T12:44:13;97779.91;;;-1.29;99.90
29907;BME280;16776;50.958;10.994;2022-12-11T12:46:53;97766.38;;;-1.34;99.56
29907;BME280;16776;50.958;10.994;2022-12-11T12:49:29;97770.63;;;-1.30;100.00
29907;BME280;16776;50.958;10.994;2022-12-11T12:51:59;97769.75;;;-1.34;99.88
29907;BME280;16776;50.958;10.994;2022-12-11T12:54:26;97776.47;;;-1.34;100.00
29907;BME280;16776;50.958;10.994;2022-12-11T12:56:56;97778.16;;;-1.37;99.91